createdAt,value
2022-12-03T00:00:57.518Z,4.50
2022-12-03T00:03:29.319Z,4.50
2022-12-03T00:06:00.398Z,4.50
2022-12-03T00:08:30.968Z,4.50
2022-12-03T00:11:01.507Z,4.50
2022-12-03T00:13:32.037Z,4.50
2022-12-03T00:16:02.824Z,4.50
2022-12-03T00:18:33.501Z,4.50
2022-12-03T00:21:04.109Z,4.40
2022-12-03T00:23:40.151Z,4.40
2022-12-03T00:26:07.270Z,4.40
2022-12-03T00:28:37.828Z,4.30
2022-12-03T00:31:08.717Z,4.30
2022-12-03T00:33:39.328Z,4.30
2022-12-03T00:36:11.540Z,4.30
2022-12-03T00:38:42.106Z,4.30
2022-12-03T00:41:13.158Z,4.30
2022-12-03T00:43:43.772Z,4.30
2022-12-03T00:46:19.690Z,4.20
2022-12-03T00:48:46.596Z,4.20
2022-12-03T00:51:17.092Z,4.20
2022-12-03T00:53:47.656Z,4.20
2022-12-03T00:56:18.251Z,4.20
2022-12-03T00:58:49.636Z,4.10
2022-12-03T01:01:20.265Z,4.10
2022-12-03T01:03:50.952Z,4.10
2022-12-03T01:06:21.557Z,4.10
2022-12-03T01:08:52.105Z,4.10
2022-12-03T01:11:41.542Z,4.00
2022-12-03T01:14:14.380Z,4.10
2022-12-03T01:16:45.194Z,4.10
2022-12-03T01:19:16.927Z,4.10
2022-12-03T01:21:49.409Z,4.10
2022-12-03T01:24:20.854Z,4.00
2022-12-03T01:26:51.499Z,4.00
2022-12-03T01:29:22.024Z,4.30
2022-12-03T01:32:10.274Z,4.20
2022-12-03T01:34:40.980Z,4.20
2022-12-03T01:37:11.567Z,4.00
2022-12-03T01:39:43.593Z,4.00
2022-12-03T01:42:18.504Z,4.00
2022-12-03T01:44:50.205Z,3.90
2022-12-03T01:47:23.693Z,4.10
2022-12-03T01:49:57.639Z,4.00
2022-12-03T01:52:31.084Z,3.90
2022-12-03T01:55:04.169Z,3.90
2022-12-03T01:57:38.340Z,3.90
2022-12-03T02:00:15.398Z,3.80
2022-12-03T02:02:46.337Z,3.80
2022-12-03T02:05:20.716Z,3.90
2022-12-03T02:07:51.878Z,3.90
2022-12-03T02:10:24.967Z,3.90
2022-12-03T02:12:58.542Z,3.80
2022-12-03T02:15:29.911Z,3.90
2022-12-03T02:18:01.068Z,3.80
2022-12-03T02:20:34.592Z,3.80
2022-12-03T02:23:08.407Z,3.80
2022-12-03T02:25:39.866Z,3.90
2022-12-03T02:28:11.515Z,3.80
2022-12-03T02:30:42.429Z,3.80
2022-12-03T02:33:13.248Z,3.80
2022-12-03T02:35:44.140Z,3.90
2022-12-03T02:38:17.842Z,3.90
2022-12-03T02:40:50.107Z,3.90
2022-12-03T02:43:23.549Z,3.90
2022-12-03T02:45:56.492Z,4.00
2022-12-03T02:48:32.020Z,4.00
2022-12-03T02:51:05.419Z,4.10
2022-12-03T02:53:41.086Z,4.10
2022-12-03T02:56:13.395Z,4.10
2022-12-03T02:58:45.337Z,4.10
2022-12-03T03:01:17.230Z,4.00
2022-12-03T03:03:49.663Z,4.00
2022-12-03T03:06:21.737Z,4.00
2022-12-03T03:08:52.423Z,4.00
2022-12-03T03:11:23.152Z,4.00
2022-12-03T03:13:53.680Z,4.00
2022-12-03T03:16:24.564Z,4.00
2022-12-03T03:18:55.268Z,4.00
2022-12-03T03:21:25.916Z,4.10
2022-12-03T03:23:56.490Z,4.10
2022-12-03T03:26:28.198Z,4.10
2022-12-03T03:29:00.327Z,4.10
2022-12-03T03:31:31.194Z,4.00
2022-12-03T03:34:02.144Z,4.00
2022-12-03T03:36:33.786Z,4.00
2022-12-03T03:39:04.910Z,4.10
2022-12-03T03:41:36.484Z,4.10
2022-12-03T03:44:09.570Z,4.10
2022-12-03T03:46:40.954Z,4.20
2022-12-03T03:49:12.284Z,4.20
2022-12-03T03:51:42.982Z,4.10
2022-12-03T03:54:13.849Z,4.10
2022-12-03T03:56:44.849Z,4.20
2022-12-03T03:59:16.760Z,4.20
2022-12-03T04:01:48.037Z,4.20
2022-12-03T04:04:21.727Z,4.30
2022-12-03T04:06:52.526Z,4.20
2022-12-03T04:09:23.114Z,4.20
2022-12-03T04:12:11.355Z,4.20
2022-12-03T04:14:42.038Z,4.30
2022-12-03T04:17:12.614Z,4.20
2022-12-03T04:19:43.205Z,4.20
2022-12-03T04:22:31.314Z,4.20
2022-12-03T04:25:37.954Z,4.20
2022-12-03T04:28:27.345Z,4.30
2022-12-03T04:30:58.013Z,4.30
2022-12-03T04:33:46.754Z,4.30
2022-12-03T04:36:18.379Z,4.40
2022-12-03T04:38:48.933Z,4.30
2022-12-03T04:41:19.495Z,4.40
2022-12-03T04:44:08.850Z,4.40
2022-12-03T04:46:39.599Z,4.30
2022-12-03T04:49:10.113Z,4.30
2022-12-03T04:51:40.821Z,4.30
2022-12-03T04:54:11.382Z,4.30
2022-12-03T04:56:42.006Z,4.30
2022-12-03T04:59:15.985Z,4.30
2022-12-03T05:01:45.034Z,4.20
2022-12-03T05:04:16.621Z,4.20
2022-12-03T05:06:47.293Z,4.30
2022-12-03T05:09:17.870Z,4.30
2022-12-03T05:11:48.478Z,4.20
2022-12-03T05:14:19.056Z,4.30
2022-12-03T05:16:49.695Z,4.30
2022-12-03T05:19:20.344Z,4.30
2022-12-03T05:21:50.889Z,4.30
2022-12-03T05:24:21.501Z,4.40
2022-12-03T05:26:52.232Z,4.40
2022-12-03T05:29:22.944Z,4.40
2022-12-03T05:31:53.494Z,4.40
2022-12-03T05:34:24.188Z,4.30
2022-12-03T05:36:54.834Z,4.30
2022-12-03T05:39:25.780Z,4.30
2022-12-03T05:42:14.094Z,4.40
2022-12-03T05:44:44.725Z,4.40
2022-12-03T05:47:15.383Z,4.40
2022-12-03T05:49:46.058Z,4.20
2022-12-03T05:52:16.645Z,4.30
2022-12-03T05:54:47.472Z,4.30
2022-12-03T05:57:18.345Z,4.30
2022-12-03T05:59:48.922Z,4.30
2022-12-03T06:02:19.640Z,4.30
2022-12-03T06:04:50.637Z,4.20
2022-12-03T06:07:21.515Z,4.20
2022-12-03T06:09:52.121Z,4.20
2022-12-03T06:12:22.645Z,4.30
2022-12-03T06:14:55.293Z,4.30
2022-12-03T06:17:26.354Z,4.40
2022-12-03T06:19:57.049Z,4.50
2022-12-03T06:22:28.713Z,4.40
2022-12-03T06:25:03.563Z,4.50
2022-12-03T06:27:31.803Z,4.40
2022-12-03T06:30:02.566Z,4.40
2022-12-03T06:32:33.198Z,4.30
2022-12-03T06:35:03.936Z,4.30
2022-12-03T06:37:34.644Z,4.30
2022-12-03T06:40:05.507Z,4.30
2022-12-03T06:42:36.262Z,4.40
2022-12-03T06:45:09.002Z,4.40
2022-12-03T06:47:40.591Z,4.40
2022-12-03T06:50:12.790Z,4.50
2022-12-03T06:52:43.425Z,4.50
2022-12-03T06:55:16.011Z,4.60
2022-12-03T06:57:47.638Z,4.60
2022-12-03T07:00:19.484Z,4.60
2022-12-03T07:02:50.794Z,4.60
2022-12-03T07:05:21.887Z,4.60
2022-12-03T07:07:54.484Z,4.60
2022-12-03T07:10:25.629Z,4.60
2022-12-03T07:12:56.157Z,4.60
2022-12-03T07:15:26.970Z,4.60
2022-12-03T07:17:58.092Z,4.70
2022-12-03T07:20:28.721Z,4.70
2022-12-03T07:22:59.550Z,4.70
2022-12-03T07:25:30.521Z,4.60
2022-12-03T07:30:39.787Z,4.60
2022-12-03T07:33:10.385Z,4.50
2022-12-03T07:35:42.186Z,4.50
2022-12-03T07:38:12.725Z,4.50
2022-12-03T07:40:43.241Z,4.50
2022-12-03T07:43:13.816Z,4.50
2022-12-03T07:45:44.526Z,4.50
2022-12-03T07:48:15.094Z,4.50
2022-12-03T07:53:24.052Z,4.50
2022-12-03T07:55:54.691Z,4.50
2022-12-03T07:58:25.275Z,4.50
2022-12-03T08:00:55.943Z,4.50
2022-12-03T08:03:26.714Z,4.50
2022-12-03T08:05:57.419Z,4.50
2022-12-03T08:08:28.151Z,4.50
2022-12-03T08:10:58.718Z,4.50
2022-12-03T08:13:30.236Z,4.50
2022-12-03T08:16:03.257Z,4.50
2022-12-03T08:18:34.276Z,4.40
2022-12-03T08:21:07.579Z,4.40
2022-12-03T08:23:38.251Z,4.40
2022-12-03T08:29:00.718Z,4.50
2022-12-03T08:31:33.655Z,4.50
2022-12-03T08:37:00.917Z,4.60
2022-12-03T08:39:37.845Z,4.60
2022-12-03T08:42:32.244Z,4.60
2022-12-03T08:45:23.258Z,4.70
2022-12-03T08:47:53.940Z,4.70
2022-12-03T08:53:12.410Z,4.60
2022-12-03T08:55:45.931Z,4.60
2022-12-03T08:58:21.827Z,4.70
2022-12-03T09:00:54.620Z,4.60
2022-12-03T09:03:25.475Z,4.70
2022-12-03T09:05:56.044Z,4.60
2022-12-03T09:08:26.631Z,4.70
2022-12-03T09:10:57.297Z,4.80
2022-12-03T09:13:28.104Z,4.70
2022-12-03T09:15:58.733Z,4.70
2022-12-03T09:18:29.464Z,4.70
2022-12-03T09:21:00.030Z,4.70
2022-12-03T09:23:30.626Z,4.80
2022-12-03T09:26:01.270Z,4.70
2022-12-03T09:28:31.819Z,4.70
2022-12-03T09:31:02.415Z,4.70
2022-12-03T09:33:33.434Z,4.70
2022-12-03T09:36:04.282Z,4.80
2022-12-03T09:38:35.266Z,4.80
2022-12-03T09:41:06.068Z,4.90
2022-12-03T09:44:02.718Z,4.90
2022-12-03T09:46:10.008Z,4.90
2022-12-03T09:48:41.342Z,4.90
2022-12-03T09:51:13.195Z,4.80
2022-12-03T09:53:44.368Z,4.70
2022-12-03T09:56:20.516Z,4.90
2022-12-03T09:58:51.961Z,4.90
2022-12-03T10:01:25.831Z,5.00
2022-12-03T10:03:55.891Z,5.00
2022-12-03T10:06:27.510Z,5.00
2022-12-03T10:09:00.303Z,5.00
2022-12-03T10:11:32.225Z,5.00
2022-12-03T10:14:03.284Z,5.00
2022-12-03T10:16:34.578Z,5.00
2022-12-03T10:19:05.647Z,5.00
2022-12-03T10:21:39.122Z,5.00
2022-12-03T10:24:28.756Z,4.90
2022-12-03T10:27:01.702Z,4.90
2022-12-03T10:29:35.022Z,5.00
2022-12-03T10:32:07.777Z,4.90
2022-12-03T10:34:40.673Z,5.00
2022-12-03T10:37:18.030Z,5.10
2022-12-03T10:39:57.788Z,5.20
2022-12-03T10:42:30.450Z,5.20
2022-12-03T10:45:15.426Z,5.20
2022-12-03T10:47:48.080Z,5.30
2022-12-03T10:50:21.040Z,5.20
2022-12-03T10:52:51.612Z,5.30
2022-12-03T10:55:22.469Z,5.30
2022-12-03T10:57:53.175Z,5.30
2022-12-03T11:00:25.640Z,5.30
2022-12-03T11:02:57.174Z,5.30
2022-12-03T11:05:29.884Z,5.30
2022-12-03T11:08:00.545Z,5.30
2022-12-03T11:10:31.200Z,5.30
2022-12-03T11:13:40.214Z,5.40
2022-12-03T11:16:11.006Z,5.30
2022-12-03T11:19:03.380Z,5.30
2022-12-03T11:21:34.105Z,5.20
2022-12-03T11:24:20.776Z,5.50
2022-12-03T11:27:20.894Z,5.30
2022-12-03T11:30:02.907Z,5.30
2022-12-03T11:33:09.848Z,5.50
2022-12-03T11:36:31.774Z,5.60
2022-12-03T11:38:58.954Z,5.80
2022-12-03T11:41:33.141Z,5.80
2022-12-03T11:44:32.933Z,5.70
2022-12-03T11:47:12.907Z,5.80
2022-12-03T11:49:50.190Z,5.80
2022-12-03T11:52:27.503Z,5.80
2022-12-03T11:55:03.047Z,5.60
2022-12-03T11:57:40.555Z,5.60
2022-12-03T12:00:18.081Z,5.60
2022-12-03T12:02:49.241Z,5.50
2022-12-03T12:05:24.280Z,5.60
2022-12-03T12:07:56.090Z,5.60
2022-12-03T12:13:54.680Z,5.70
2022-12-03T12:16:48.832Z,5.70
2022-12-03T12:22:33.435Z,5.80
2022-12-03T12:25:06.034Z,5.70
2022-12-03T12:27:39.574Z,5.60
2022-12-03T12:30:14.797Z,5.60
2022-12-03T12:32:48.014Z,5.60
2022-12-03T12:35:21.079Z,5.60
2022-12-03T12:37:59.742Z,5.70
2022-12-03T12:40:29.056Z,5.70
2022-12-03T12:43:05.576Z,5.60
2022-12-03T12:45:36.531Z,5.80
2022-12-03T12:48:13.355Z,5.80
2022-12-03T12:50:46.796Z,5.70
2022-12-03T12:53:22.751Z,5.60
2022-12-03T12:58:36.149Z,5.70
2022-12-03T13:01:10.546Z,5.50
2022-12-03T13:03:43.807Z,5.50
2022-12-03T13:06:17.504Z,5.50
2022-12-03T13:08:50.855Z,5.60
2022-12-03T13:11:30.286Z,5.70
2022-12-03T13:14:02.823Z,5.50
2022-12-03T13:16:36.811Z,5.60
2022-12-03T13:19:20.445Z,5.60
2022-12-03T13:21:52.724Z,5.60
2022-12-03T13:24:34.114Z,5.50
2022-12-03T13:27:10.401Z,5.50
2022-12-03T13:29:41.569Z,5.60
2022-12-03T13:32:15.855Z,5.60
2022-12-03T13:34:47.003Z,5.60
2022-12-03T13:37:21.212Z,5.60
2022-12-03T13:39:54.360Z,5.60
2022-12-03T13:42:39.539Z,5.60
2022-12-03T13:48:04.606Z,5.60
2022-12-03T13:50:38.001Z,5.60
2022-12-03T13:55:54.095Z,5.70
2022-12-03T13:58:24.733Z,5.70
2022-12-03T14:00:55.470Z,5.80
2022-12-03T14:03:26.124Z,5.70
2022-12-03T14:05:57.781Z,5.80
2022-12-03T14:08:28.575Z,5.80
2022-12-03T14:11:00.841Z,5.80
2022-12-03T14:13:32.111Z,5.80
2022-12-03T14:16:03.210Z,5.80
2022-12-03T14:18:34.109Z,5.80
2022-12-03T14:21:04.978Z,5.80
2022-12-03T14:23:35.553Z,5.90
2022-12-03T14:26:06.481Z,5.80
2022-12-03T14:28:37.053Z,5.80
2022-12-03T14:31:07.993Z,5.90
2022-12-03T14:33:38.821Z,5.90
2022-12-03T14:36:11.766Z,5.90
2022-12-03T14:38:42.383Z,5.90
2022-12-03T14:41:49.284Z,5.80
2022-12-03T14:46:59.050Z,5.80
2022-12-03T14:49:29.726Z,5.80
2022-12-03T14:52:00.696Z,5.80
2022-12-03T14:54:31.867Z,5.80
2022-12-03T14:57:02.593Z,5.80
2022-12-03T14:59:33.301Z,5.80
2022-12-03T15:02:04.229Z,5.90
2022-12-03T15:04:35.455Z,5.90
2022-12-03T15:07:06.560Z,5.80
2022-12-03T15:09:38.024Z,5.80
2022-12-03T15:12:09.885Z,5.80
2022-12-03T15:14:41.552Z,5.80
2022-12-03T15:17:12.261Z,5.80
2022-12-03T15:19:43.230Z,5.80
2022-12-03T15:22:13.822Z,5.80
2022-12-03T15:24:44.452Z,5.90
2022-12-03T15:27:15.081Z,5.80
2022-12-03T15:29:45.720Z,5.80
2022-12-03T15:32:16.493Z,5.80
2022-12-03T15:34:49.830Z,5.80
2022-12-03T15:37:20.745Z,5.80
2022-12-03T15:39:51.440Z,5.90
2022-12-03T15:42:22.115Z,5.90
2022-12-03T15:44:52.748Z,5.80
2022-12-03T15:47:23.439Z,5.80
2022-12-03T15:49:54.452Z,5.80
2022-12-03T15:52:25.303Z,5.90
2022-12-03T15:54:56.206Z,5.90
2022-12-03T15:57:26.830Z,5.90
2022-12-03T15:59:57.599Z,5.90
2022-12-03T16:02:30.429Z,5.90
2022-12-03T16:05:01.621Z,5.80
2022-12-03T16:07:32.374Z,5.80
2022-12-03T16:10:03.240Z,5.80
2022-12-03T16:12:34.140Z,5.80
2022-12-03T16:15:05.295Z,5.90
2022-12-03T16:17:36.119Z,5.80
2022-12-03T16:20:09.460Z,5.90
2022-12-03T16:22:40.615Z,5.80
2022-12-03T16:25:12.061Z,5.80
2022-12-03T16:27:42.615Z,5.80
2022-12-03T16:30:15.558Z,5.80
2022-12-03T16:32:46.176Z,5.80
2022-12-03T16:35:17.104Z,5.80
2022-12-03T16:37:47.853Z,5.90
2022-12-03T16:40:18.732Z,5.90
2022-12-03T16:42:49.427Z,5.90
2022-12-03T16:45:25.169Z,5.90
2022-12-03T16:47:55.863Z,5.90
2022-12-03T16:50:29.778Z,5.90
2022-12-03T16:52:58.633Z,5.90
2022-12-03T16:55:29.302Z,5.90
2022-12-03T16:57:59.987Z,6.00
2022-12-03T17:00:30.631Z,5.90
2022-12-03T17:03:01.318Z,5.90
2022-12-03T17:05:32.077Z,5.90
2022-12-03T17:08:02.766Z,5.90
2022-12-03T17:10:33.884Z,5.90
2022-12-03T17:13:11.720Z,6.00
2022-12-03T17:15:37.249Z,6.00
2022-12-03T17:18:09.097Z,6.00
2022-12-03T17:20:39.779Z,5.90
2022-12-03T17:23:10.488Z,6.00
2022-12-03T17:25:42.270Z,5.90
2022-12-03T17:28:12.890Z,5.90
2022-12-03T17:30:44.486Z,5.90
2022-12-03T17:33:16.881Z,5.90
2022-12-03T17:35:48.394Z,5.90
2022-12-03T17:38:19.140Z,5.90
2022-12-03T17:40:50.609Z,6.00
2022-12-03T17:43:21.432Z,6.00
2022-12-03T17:45:52.529Z,6.00
2022-12-03T17:48:23.649Z,6.00
2022-12-03T17:50:55.650Z,5.90
2022-12-03T17:53:26.687Z,5.90
2022-12-03T17:55:57.479Z,5.90
2022-12-03T17:58:28.766Z,5.90
2022-12-03T18:01:03.038Z,5.90
2022-12-03T18:03:34.159Z,5.90
2022-12-03T18:06:05.635Z,5.90
2022-12-03T18:08:36.839Z,5.80
2022-12-03T18:11:08.391Z,5.90
2022-12-03T18:13:39.061Z,5.90
2022-12-03T18:16:10.458Z,5.90
2022-12-03T18:18:42.176Z,5.90
2022-12-03T18:21:13.938Z,5.90
2022-12-03T18:23:45.314Z,5.90
2022-12-03T18:26:16.516Z,5.80
2022-12-03T18:28:47.664Z,5.80
2022-12-03T18:31:20.721Z,5.70
2022-12-03T18:33:51.951Z,5.60
2022-12-03T18:36:24.095Z,5.50
2022-12-03T18:41:36.298Z,5.50
2022-12-03T18:44:09.936Z,5.60
2022-12-03T18:46:56.119Z,5.50
2022-12-03T18:49:13.263Z,5.50
2022-12-03T18:51:44.044Z,5.40
2022-12-03T18:54:15.832Z,5.40
2022-12-03T18:56:46.588Z,5.40
2022-12-03T18:59:17.211Z,5.40
2022-12-03T19:01:47.806Z,5.40
2022-12-03T19:04:18.461Z,5.40
2022-12-03T19:06:49.218Z,5.30
2022-12-03T19:09:19.884Z,5.30
2022-12-03T19:11:50.712Z,5.30
2022-12-03T19:14:21.523Z,5.30
2022-12-03T19:16:52.356Z,5.20
2022-12-03T19:19:24.920Z,5.30
2022-12-03T19:21:55.761Z,5.20
2022-12-03T19:24:27.600Z,5.10
2022-12-03T19:26:58.335Z,5.10
2022-12-03T19:29:29.336Z,5.10
2022-12-03T19:32:00.216Z,5.10
2022-12-03T19:34:31.380Z,5.10
2022-12-03T19:37:02.119Z,5.10
2022-12-03T19:39:33.563Z,5.00
2022-12-03T19:42:04.900Z,5.00
2022-12-03T19:44:35.610Z,5.00
2022-12-03T19:47:06.427Z,5.00
2022-12-03T19:49:37.960Z,5.00
2022-12-03T19:52:08.681Z,5.00
2022-12-03T19:54:39.854Z,5.00
2022-12-03T19:57:10.631Z,5.00
2022-12-03T19:59:42.746Z,5.00
2022-12-03T20:02:14.006Z,5.00
2022-12-03T20:04:45.017Z,5.00
2022-12-03T20:07:15.996Z,5.00
2022-12-03T20:09:46.839Z,5.10
2022-12-03T20:12:17.574Z,5.00
2022-12-03T20:14:50.143Z,5.00
2022-12-03T20:17:20.922Z,5.10
2022-12-03T20:19:51.865Z,5.00
2022-12-03T20:22:22.697Z,5.00
2022-12-03T20:24:54.010Z,5.10
2022-12-03T20:27:25.868Z,5.10
2022-12-03T20:29:57.183Z,5.10
2022-12-03T20:32:28.225Z,5.10
2022-12-03T20:35:00.077Z,5.20
2022-12-03T20:37:32.206Z,5.20
2022-12-03T20:40:03.173Z,5.20
2022-12-03T20:42:33.802Z,5.20
2022-12-03T20:45:05.169Z,5.20
2022-12-03T20:47:35.824Z,5.30
2022-12-03T20:50:08.395Z,5.20
2022-12-03T20:52:45.255Z,5.30
2022-12-03T20:55:13.263Z,5.30
2022-12-03T20:57:43.828Z,5.20
2022-12-03T21:00:16.210Z,5.30
2022-12-03T21:02:47.022Z,5.30
2022-12-03T21:05:18.740Z,5.30
2022-12-03T21:07:52.220Z,5.20
2022-12-03T21:10:39.630Z,5.30
2022-12-03T21:13:10.297Z,5.20
2022-12-03T21:15:41.069Z,5.20
2022-12-03T21:18:14.289Z,5.20
2022-12-03T21:20:46.313Z,5.30
2022-12-03T21:23:17.550Z,5.20
2022-12-03T21:25:48.188Z,5.20
2022-12-03T21:28:19.814Z,5.20
2022-12-03T21:30:50.461Z,5.30
2022-12-03T21:33:21.228Z,5.30
2022-12-03T21:35:51.919Z,5.30
2022-12-03T21:38:23.219Z,5.30
2022-12-03T21:40:53.895Z,5.30
2022-12-03T21:43:25.412Z,5.30
2022-12-03T21:45:57.144Z,5.30
2022-12-03T21:48:27.718Z,5.30
2022-12-03T21:51:03.602Z,5.20
2022-12-03T21:53:37.917Z,5.20
2022-12-03T21:56:09.852Z,5.10
2022-12-03T21:58:40.943Z,5.10
2022-12-03T22:01:17.148Z,5.10
2022-12-03T22:03:48.040Z,5.10
2022-12-03T22:06:19.191Z,5.10
2022-12-03T22:08:50.672Z,5.10
2022-12-03T22:11:22.672Z,5.20
2022-12-03T22:13:54.674Z,5.20
2022-12-03T22:16:25.457Z,5.20
2022-12-03T22:18:56.862Z,5.20
2022-12-03T22:21:27.748Z,5.20
2022-12-03T22:23:59.062Z,5.30
2022-12-03T22:26:29.820Z,5.30
2022-12-03T22:29:00.882Z,5.30
2022-12-03T22:31:31.500Z,5.30
2022-12-03T22:34:02.063Z,5.30
2022-12-03T22:36:32.872Z,5.20
2022-12-03T22:39:03.376Z,5.20
2022-12-03T22:41:33.994Z,5.20
2022-12-03T22:44:04.596Z,5.10
2022-12-03T22:46:35.253Z,5.00
2022-12-03T22:49:07.571Z,5.00
2022-12-03T22:51:38.589Z,5.00
2022-12-03T22:54:09.162Z,5.00
2022-12-03T22:56:39.953Z,5.10
2022-12-03T22:59:10.929Z,5.00
2022-12-03T23:01:42.911Z,5.00
2022-12-03T23:04:13.880Z,5.10
2022-12-03T23:06:44.747Z,5.10
2022-12-03T23:09:15.316Z,5.10
2022-12-03T23:11:46.695Z,5.10
2022-12-03T23:14:17.297Z,5.10
2022-12-03T23:16:47.875Z,5.10
2022-12-03T23:19:20.050Z,5.10
2022-12-03T23:21:50.597Z,5.10
2022-12-03T23:24:21.173Z,5.00
2022-12-03T23:26:51.738Z,5.00
2022-12-03T23:29:22.651Z,5.00
2022-12-03T23:31:53.267Z,4.90
2022-12-03T23:34:24.002Z,4.90
2022-12-03T23:36:54.782Z,4.80
2022-12-03T23:39:25.346Z,4.80
2022-12-03T23:41:55.938Z,4.90
2022-12-03T23:44:28.263Z,4.90
2022-12-03T23:46:58.999Z,4.90
2022-12-03T23:49:30.485Z,4.90
2022-12-03T23:52:01.061Z,4.90
2022-12-03T23:54:31.603Z,4.90
2022-12-03T23:57:02.255Z,4.90
2022-12-03T23:59:32.822Z,4.90
